CheckWX is a tool to help pilots better visualize weather data.  It is not intended as a substitute for an official pre-flight weather briefing.

21:06:03 UTC

KESN METAR
Easton / Newnam Field Airport
Easton, Maryland, USA
Current

16 mins ago

KESN 232050Z 05005KT 3SM -RA OVC009 06/04 A3034
Observed
Feb-23 @ 20:50 UTC
Wind
  • 050° at 5 KTS
Visibility
3 SM
Flight Rules
IFR
Conditions
Light Rain
Cloud Levels
  • Overcast at 900' AGL
Temperature
C / 43°F
Dewpoint
C / 39°F
Humidity
87%
Altimeter
30.34" Hg
Pressure
1027.42 hPa
Previous

1 hour ago

KESN 231950Z 04006KT 4SM -RA OVC010 06/04 A3036
Observed
Feb-23 @ 19:50 UTC
Wind
  • 040° at 6 KTS
Visibility
4 SM
Flight Rules
MVFR
Conditions
Light Rain
Cloud Levels
  • Overcast at 1,000' AGL
Temperature
C / 43°F
Dewpoint
C / 39°F
Humidity
87%
Altimeter
30.36" Hg
Pressure
1028.12 hPa
Previous

2 hours ago

KESN 231857Z 07004KT 7SM -RA OVC010 06/03 A3037
Observed
Feb-23 @ 18:57 UTC
Wind
  • 070° at 4 KTS
Visibility
7 SM
Flight Rules
MVFR
Conditions
Light Rain
Cloud Levels
  • Overcast at 1,000' AGL
Temperature
C / 43°F
Dewpoint
C / 37°F
Humidity
81%
Altimeter
30.37" Hg
Pressure
1028.42 hPa